createdAt,value
2017-10-19T00:00:24.418Z,9.66
2017-10-19T00:01:24.452Z,9.83
2017-10-19T00:02:24.486Z,9.93
2017-10-19T00:03:24.515Z,9.96
2017-10-19T00:04:24.547Z,9.93
2017-10-19T00:05:24.580Z,9.93
2017-10-19T00:06:24.612Z,9.96
2017-10-19T00:07:24.652Z,9.94
2017-10-19T00:08:24.677Z,9.93
2017-10-19T00:09:24.711Z,9.93
2017-10-19T00:10:24.743Z,9.90
2017-10-19T00:11:24.775Z,9.93
2017-10-19T00:12:24.807Z,10.02
2017-10-19T00:13:24.840Z,10.07
2017-10-19T00:14:24.873Z,9.93
2017-10-19T00:15:24.910Z,9.97
2017-10-19T00:16:24.936Z,9.99
2017-10-19T00:17:24.968Z,9.94
2017-10-19T00:18:25.007Z,9.90
2017-10-19T00:19:25.033Z,9.94
2017-10-19T00:20:25.065Z,9.93
2017-10-19T00:21:25.098Z,9.91
2017-10-19T00:22:25.130Z,9.96
2017-10-19T00:23:25.163Z,9.96
2017-10-19T00:24:25.195Z,9.93
2017-10-19T00:25:25.228Z,9.87
2017-10-19T00:26:25.258Z,9.83
2017-10-19T00:27:25.292Z,9.96
2017-10-19T00:28:25.323Z,9.86
2017-10-19T00:29:25.357Z,10.07
2017-10-19T00:30:25.390Z,9.99
2017-10-19T00:31:25.420Z,9.97
2017-10-19T00:32:25.452Z,9.97
2017-10-19T00:33:25.486Z,9.93
2017-10-19T00:34:25.520Z,9.87
2017-10-19T00:35:25.550Z,9.78
2017-10-19T00:36:25.581Z,9.66
2017-10-19T00:37:25.614Z,9.47
2017-10-19T00:38:25.646Z,9.43
2017-10-19T00:39:25.678Z,9.43
2017-10-19T00:40:25.711Z,9.32
2017-10-19T00:41:25.742Z,9.26
2017-10-19T00:42:25.775Z,9.33
2017-10-19T00:43:25.806Z,9.28
2017-10-19T00:44:25.839Z,9.28
2017-10-19T00:45:25.872Z,9.32
2017-10-19T00:46:25.903Z,9.35
2017-10-19T00:47:25.937Z,9.40
2017-10-19T00:48:25.967Z,9.51
2017-10-19T00:49:25.999Z,9.51
2017-10-19T00:50:26.032Z,9.53
2017-10-19T00:51:26.065Z,9.56
2017-10-19T00:52:26.096Z,9.54
2017-10-19T00:53:26.128Z,9.53
2017-10-19T00:54:26.161Z,9.58
2017-10-19T00:55:26.194Z,9.50
2017-10-19T00:56:26.224Z,9.42
2017-10-19T00:57:26.257Z,9.43
2017-10-19T00:58:26.289Z,9.33
2017-10-19T00:59:26.322Z,9.39
2017-10-19T01:00:26.353Z,9.28
2017-10-19T01:01:26.386Z,9.36
2017-10-19T01:02:26.419Z,9.33
2017-10-19T01:03:26.451Z,9.31
2017-10-19T01:04:26.482Z,9.40
2017-10-19T01:05:26.514Z,9.47
2017-10-19T01:06:26.548Z,9.54
2017-10-19T01:07:26.581Z,9.57
2017-10-19T01:08:26.610Z,9.54
2017-10-19T01:09:26.644Z,9.68
2017-10-19T01:10:26.676Z,9.54
2017-10-19T01:11:26.711Z,9.66
2017-10-19T01:12:26.740Z,9.56
2017-10-19T01:13:26.773Z,9.66
2017-10-19T01:14:26.804Z,9.61
2017-10-19T01:15:26.837Z,9.75
2017-10-19T01:16:26.868Z,9.69
2017-10-19T01:17:26.902Z,9.74
2017-10-19T01:18:26.933Z,9.83
2017-10-19T01:19:26.966Z,9.89
2017-10-19T01:20:26.998Z,9.79
2017-10-19T01:21:27.030Z,9.84
2017-10-19T01:22:27.061Z,9.78
2017-10-19T01:23:27.094Z,9.68
2017-10-19T01:24:27.126Z,9.76
2017-10-19T01:25:27.158Z,9.75
2017-10-19T01:26:27.190Z,9.69
2017-10-19T01:27:27.222Z,9.66
2017-10-19T01:28:27.254Z,9.72
2017-10-19T01:29:27.285Z,9.72
2017-10-19T01:30:27.318Z,9.68
2017-10-19T01:31:27.350Z,9.66
2017-10-19T01:32:27.381Z,9.64
2017-10-19T01:33:27.413Z,9.57
2017-10-19T01:34:27.447Z,9.57
2017-10-19T01:35:27.480Z,9.39
2017-10-19T01:36:27.510Z,9.43
2017-10-19T01:37:27.543Z,9.47
2017-10-19T01:38:27.575Z,9.46
2017-10-19T01:39:27.608Z,9.31
2017-10-19T01:40:27.638Z,9.31
2017-10-19T01:41:27.670Z,9.46
2017-10-19T01:42:27.702Z,9.39
2017-10-19T01:43:27.735Z,9.39
2017-10-19T01:44:27.766Z,9.46
2017-10-19T01:45:27.799Z,9.50
2017-10-19T01:46:27.830Z,9.40
2017-10-19T01:47:27.863Z,9.47
2017-10-19T01:48:27.894Z,9.26
2017-10-19T01:49:27.925Z,9.29
2017-10-19T01:50:27.958Z,9.28
2017-10-19T01:51:27.992Z,9.36
2017-10-19T01:52:28.022Z,9.36
2017-10-19T01:53:28.055Z,9.33
2017-10-19T01:54:28.087Z,9.32
2017-10-19T01:55:28.118Z,9.43
2017-10-19T01:56:28.149Z,9.48
2017-10-19T01:57:28.183Z,9.42
2017-10-19T01:58:28.214Z,9.48
2017-10-19T01:59:28.246Z,9.48
2017-10-19T02:00:28.280Z,9.53
2017-10-19T02:01:28.309Z,9.54
2017-10-19T02:02:28.342Z,9.56
2017-10-19T02:03:28.374Z,9.56
2017-10-19T02:04:28.405Z,9.53
2017-10-19T02:05:28.439Z,9.40
2017-10-19T02:06:28.471Z,9.47
2017-10-19T02:07:28.501Z,9.58
2017-10-19T02:08:28.543Z,9.50
2017-10-19T02:09:28.567Z,9.48
2017-10-19T02:10:28.598Z,9.54
2017-10-19T02:11:28.628Z,9.56
2017-10-19T02:12:28.663Z,9.65
2017-10-19T02:13:28.693Z,9.54
2017-10-19T02:14:28.725Z,9.65
2017-10-19T02:15:28.759Z,9.57
2017-10-19T02:16:28.789Z,9.54
2017-10-19T02:17:28.822Z,9.53
2017-10-19T02:18:28.853Z,9.47
2017-10-19T02:19:28.886Z,9.39
2017-10-19T02:20:28.917Z,9.54
2017-10-19T02:21:28.949Z,9.54
2017-10-19T02:22:28.981Z,9.43
2017-10-19T02:23:29.013Z,9.35
2017-10-19T02:24:29.044Z,9.31
2017-10-19T02:25:29.076Z,9.28
2017-10-19T02:26:29.108Z,9.29
2017-10-19T02:27:29.140Z,9.40
2017-10-19T02:28:29.171Z,9.38
2017-10-19T02:29:29.203Z,9.33
2017-10-19T02:30:29.237Z,9.24
2017-10-19T02:31:29.267Z,9.23
2017-10-19T02:32:29.299Z,9.24
2017-10-19T02:33:29.331Z,9.23
2017-10-19T02:34:29.363Z,9.14
2017-10-19T02:35:29.395Z,9.15
2017-10-19T02:36:29.426Z,9.08
2017-10-19T02:37:29.460Z,9.11
2017-10-19T02:38:29.491Z,9.11
2017-10-19T02:39:29.522Z,9.05
2017-10-19T02:40:29.557Z,9.17
2017-10-19T02:41:29.588Z,9.01
2017-10-19T02:42:29.617Z,9.08
2017-10-19T02:43:29.650Z,9.10
2017-10-19T02:44:29.682Z,9.05
2017-10-19T02:45:29.713Z,9.14
2017-10-19T02:46:29.745Z,9.01
2017-10-19T02:47:29.777Z,8.98
2017-10-19T02:48:29.809Z,8.86
2017-10-19T02:49:29.841Z,8.89
2017-10-19T02:50:29.872Z,8.92
2017-10-19T02:51:29.904Z,9.01
2017-10-19T02:52:29.936Z,8.95
2017-10-19T02:53:29.970Z,9.08
2017-10-19T02:54:29.999Z,9.15
2017-10-19T02:55:30.032Z,9.17
2017-10-19T02:56:30.071Z,9.14
2017-10-19T02:57:30.096Z,9.18
2017-10-19T02:58:30.134Z,9.14
2017-10-19T02:59:30.165Z,9.20
2017-10-19T03:00:30.189Z,9.17
2017-10-19T03:01:30.221Z,9.23
2017-10-19T03:02:30.253Z,9.24
2017-10-19T03:03:30.286Z,9.23
2017-10-19T03:04:30.316Z,9.18
2017-10-19T03:05:30.348Z,9.14
2017-10-19T03:06:30.380Z,9.28
2017-10-19T03:07:30.413Z,9.31
2017-10-19T03:08:30.442Z,9.24
2017-10-19T03:09:30.474Z,9.35
2017-10-19T03:10:30.506Z,9.26
2017-10-19T03:11:30.538Z,9.29
2017-10-19T03:12:30.570Z,9.32
2017-10-19T03:13:30.603Z,9.33
2017-10-19T03:14:30.633Z,9.28
2017-10-19T03:15:30.666Z,9.33
2017-10-19T03:16:30.698Z,9.31
2017-10-19T03:17:30.729Z,9.20
2017-10-19T03:18:30.760Z,9.21
2017-10-19T03:19:30.795Z,9.18
2017-10-19T03:20:30.822Z,9.29
2017-10-19T03:21:30.857Z,9.18
2017-10-19T03:22:30.887Z,9.04
2017-10-19T03:23:30.922Z,9.08
2017-10-19T03:24:30.950Z,8.98
2017-10-19T03:25:30.982Z,8.94
2017-10-19T03:26:31.014Z,8.91
2017-10-19T03:27:31.046Z,8.84
2017-10-19T03:28:31.082Z,8.79
2017-10-19T03:29:31.108Z,8.87
2017-10-19T03:30:31.142Z,8.92
2017-10-19T03:31:31.172Z,8.99
2017-10-19T03:32:31.215Z,9.01
2017-10-19T03:33:31.235Z,9.01
2017-10-19T03:34:31.266Z,9.02
2017-10-19T03:35:31.300Z,9.01
2017-10-19T03:36:31.329Z,9.11
2017-10-19T03:37:31.363Z,9.04
2017-10-19T03:38:31.393Z,9.01
2017-10-19T03:39:31.425Z,8.96
2017-10-19T03:40:31.457Z,8.96
2017-10-19T03:41:31.488Z,9.08
2017-10-19T03:42:31.521Z,9.14
2017-10-19T03:43:31.553Z,9.17
2017-10-19T03:44:31.584Z,9.15
2017-10-19T03:45:31.615Z,9.08
2017-10-19T03:46:31.647Z,9.21
2017-10-19T03:47:31.679Z,9.21
2017-10-19T03:48:31.711Z,9.05
2017-10-19T03:49:31.742Z,9.10
2017-10-19T03:50:31.775Z,9.10
2017-10-19T03:51:31.807Z,9.05
2017-10-19T03:52:31.836Z,8.98
2017-10-19T03:53:31.867Z,8.94
2017-10-19T03:54:31.900Z,8.86
2017-10-19T03:55:31.932Z,8.98
2017-10-19T03:56:31.962Z,8.91
2017-10-19T03:57:31.994Z,8.98
2017-10-19T03:58:32.027Z,8.87
2017-10-19T03:59:32.057Z,8.89
2017-10-19T04:00:32.088Z,8.91
2017-10-19T04:01:32.120Z,8.92
2017-10-19T04:02:32.152Z,8.92
2017-10-19T04:03:32.183Z,8.80
2017-10-19T04:04:32.213Z,8.89
2017-10-19T04:05:32.246Z,8.91
2017-10-19T04:06:32.278Z,8.92
2017-10-19T04:07:32.310Z,8.86
2017-10-19T04:08:32.340Z,8.87
2017-10-19T04:09:32.372Z,8.89
2017-10-19T04:10:32.403Z,8.98
2017-10-19T04:11:32.435Z,8.80
2017-10-19T04:12:32.466Z,8.92
2017-10-19T04:13:32.498Z,8.96
2017-10-19T04:14:32.530Z,9.08
2017-10-19T04:15:32.562Z,9.15
2017-10-19T04:16:32.593Z,9.15
2017-10-19T04:17:32.624Z,9.20
2017-10-19T04:18:32.656Z,9.17
2017-10-19T04:19:32.688Z,9.18
2017-10-19T04:20:32.719Z,9.21
2017-10-19T04:21:32.751Z,9.26
2017-10-19T04:22:32.782Z,9.26
2017-10-19T04:23:32.814Z,9.31
2017-10-19T04:24:32.844Z,9.23
2017-10-19T04:25:32.878Z,9.23
2017-10-19T04:26:32.910Z,9.15
2017-10-19T04:27:32.941Z,9.13
2017-10-19T04:28:32.973Z,9.14
2017-10-19T04:29:33.010Z,9.08
2017-10-19T04:30:33.037Z,9.08
2017-10-19T04:31:33.068Z,9.08
2017-10-19T04:32:33.099Z,9.15
2017-10-19T04:33:33.132Z,9.10
2017-10-19T04:34:33.168Z,9.21
2017-10-19T04:35:33.196Z,9.17
2017-10-19T04:36:33.225Z,9.28
2017-10-19T04:37:33.259Z,9.32
2017-10-19T04:38:33.289Z,9.33
2017-10-19T04:39:33.322Z,9.39
2017-10-19T04:40:33.353Z,9.43
2017-10-19T04:41:33.385Z,9.47
2017-10-19T04:42:33.417Z,9.43
2017-10-19T04:43:33.449Z,9.54
2017-10-19T04:44:33.481Z,9.61
2017-10-19T04:45:33.512Z,9.64
2017-10-19T04:46:33.544Z,9.61
2017-10-19T04:47:33.578Z,9.65
2017-10-19T04:48:33.608Z,9.66
2017-10-19T04:49:33.639Z,9.58
2017-10-19T04:50:33.672Z,9.69
2017-10-19T04:51:33.703Z,9.68
2017-10-19T04:52:33.735Z,9.58
2017-10-19T04:53:33.767Z,9.69
2017-10-19T04:54:33.799Z,9.64
2017-10-19T04:55:33.838Z,9.69
2017-10-19T04:56:33.861Z,9.71
2017-10-19T04:57:33.895Z,9.76
2017-10-19T04:58:33.928Z,9.78
2017-10-19T04:59:33.960Z,9.86
2017-10-19T05:00:33.990Z,9.89
2017-10-19T05:01:34.023Z,9.96
2017-10-19T05:02:34.055Z,9.93
2017-10-19T05:03:34.088Z,10.05
2017-10-19T05:04:34.120Z,10.07
2017-10-19T05:05:34.153Z,10.07
2017-10-19T05:06:34.184Z,10.12
2017-10-19T05:07:34.216Z,10.23
2017-10-19T05:08:34.249Z,10.15
2017-10-19T05:09:34.285Z,10.18
2017-10-19T05:10:34.313Z,10.25
2017-10-19T05:11:34.351Z,10.14
2017-10-19T05:12:34.384Z,10.26
2017-10-19T05:13:34.408Z,10.29
2017-10-19T05:14:34.442Z,10.23
2017-10-19T05:15:34.475Z,10.20
2017-10-19T05:16:34.505Z,10.18
2017-10-19T05:17:34.544Z,10.17
2017-10-19T05:18:34.575Z,10.12
2017-10-19T05:19:34.603Z,10.20
2017-10-19T05:20:34.637Z,10.26
2017-10-19T05:21:34.667Z,10.05
2017-10-19T05:22:34.701Z,10.15
2017-10-19T05:23:34.733Z,10.09
2017-10-19T05:24:34.764Z,10.05
2017-10-19T05:25:34.797Z,10.05
2017-10-19T05:26:34.830Z,10.01
2017-10-19T05:27:34.863Z,9.97
2017-10-19T05:28:34.893Z,9.90
2017-10-19T05:29:34.927Z,9.99
2017-10-19T05:30:34.959Z,10.01
2017-10-19T05:31:34.992Z,10.05
2017-10-19T05:32:35.023Z,10.15
2017-10-19T05:33:35.056Z,10.25
2017-10-19T05:34:35.088Z,10.26
2017-10-19T05:35:35.121Z,10.23
2017-10-19T05:36:35.152Z,10.23
2017-10-19T05:37:35.184Z,10.29
2017-10-19T05:38:35.218Z,10.38
2017-10-19T05:39:35.350Z,10.29
2017-10-19T05:40:35.282Z,10.34
2017-10-19T05:41:35.314Z,10.29
2017-10-19T05:42:35.347Z,10.34
2017-10-19T05:43:35.388Z,10.32
2017-10-19T05:44:35.414Z,10.47
2017-10-19T05:45:35.444Z,10.44
2017-10-19T05:46:35.477Z,10.45
2017-10-19T05:47:35.509Z,10.56
2017-10-19T05:48:35.541Z,10.55
2017-10-19T05:49:35.574Z,10.52
2017-10-19T05:50:35.607Z,10.60
2017-10-19T05:51:35.640Z,10.67
2017-10-19T05:52:35.672Z,10.63
2017-10-19T05:53:35.704Z,10.59
2017-10-19T05:54:35.738Z,10.64
2017-10-19T05:55:35.794Z,10.60
2017-10-19T05:56:35.808Z,10.59
2017-10-19T05:57:35.834Z,10.64
2017-10-19T05:58:35.879Z,10.55
2017-10-19T05:59:35.900Z,10.66
2017-10-19T06:00:35.933Z,10.64
2017-10-19T06:01:35.966Z,10.67
2017-10-19T06:02:35.998Z,10.70
2017-10-19T06:03:36.038Z,10.67
2017-10-19T06:04:36.064Z,10.76
2017-10-19T06:05:36.096Z,10.92
2017-10-19T06:06:36.129Z,11.03
2017-10-19T06:07:36.162Z,11.03
2017-10-19T06:08:36.194Z,11.09
2017-10-19T06:09:36.227Z,11.21
2017-10-19T06:10:36.259Z,11.29
2017-10-19T06:11:36.292Z,11.42
2017-10-19T06:12:36.325Z,11.49
2017-10-19T06:13:36.357Z,11.47
2017-10-19T06:14:36.390Z,11.47
2017-10-19T06:15:36.423Z,11.47
2017-10-19T06:16:36.454Z,11.40
2017-10-19T06:17:36.488Z,11.42
2017-10-19T06:18:36.521Z,11.25
2017-10-19T06:19:36.554Z,11.36
2017-10-19T06:20:36.587Z,11.25
2017-10-19T06:21:36.619Z,11.29
2017-10-19T06:22:36.653Z,11.18
2017-10-19T06:23:36.689Z,11.28
2017-10-19T06:24:36.718Z,11.14
2017-10-19T06:25:36.750Z,11.14
2017-10-19T06:26:36.784Z,11.15
2017-10-19T06:27:36.847Z,11.10
2017-10-19T06:28:36.850Z,11.15
2017-10-19T06:29:36.882Z,11.14
2017-10-19T06:30:36.916Z,11.14
2017-10-19T06:31:36.951Z,11.15
2017-10-19T06:32:36.983Z,11.14
2017-10-19T06:33:37.015Z,11.17
2017-10-19T06:34:37.049Z,11.18
2017-10-19T06:35:37.082Z,11.21
2017-10-19T06:36:37.115Z,11.19
2017-10-19T06:37:37.148Z,11.06
2017-10-19T06:38:38.891Z,11.11
2017-10-19T06:39:37.216Z,11.11
2017-10-19T06:40:37.248Z,11.19
2017-10-19T06:41:37.281Z,11.28
2017-10-19T06:42:37.315Z,11.27
2017-10-19T06:43:37.348Z,11.27
2017-10-19T06:44:37.380Z,11.35
2017-10-19T06:45:37.413Z,11.32
2017-10-19T06:46:37.448Z,11.29
2017-10-19T06:47:37.480Z,11.33
2017-10-19T06:48:37.513Z,11.39
2017-10-19T06:49:37.546Z,11.44
2017-10-19T06:50:37.580Z,11.40
2017-10-19T06:51:37.614Z,11.37
2017-10-19T06:52:37.645Z,11.36
2017-10-19T06:53:37.678Z,11.27
2017-10-19T06:54:37.712Z,11.32
2017-10-19T06:55:37.747Z,11.35
2017-10-19T06:56:37.778Z,11.33
2017-10-19T06:57:37.812Z,11.39
2017-10-19T06:58:37.846Z,11.49
2017-10-19T06:59:37.879Z,11.55
2017-10-19T07:00:37.912Z,11.57
2017-10-19T07:01:37.945Z,11.54
2017-10-19T07:02:37.979Z,11.61
2017-10-19T07:03:38.013Z,11.67
2017-10-19T07:04:38.045Z,11.80
2017-10-19T07:05:38.079Z,11.80
2017-10-19T07:06:38.113Z,11.80
2017-10-19T07:07:38.148Z,11.88
2017-10-19T07:08:38.179Z,11.95
2017-10-19T07:09:38.212Z,11.80
2017-10-19T07:10:38.248Z,11.91
2017-10-19T07:11:38.280Z,11.86
2017-10-19T07:12:38.314Z,11.95
2017-10-19T07:13:38.349Z,12.07
2017-10-19T07:14:38.381Z,12.09
2017-10-19T07:15:38.416Z,12.10
2017-10-19T07:16:38.448Z,12.17
2017-10-19T07:17:38.482Z,12.23
2017-10-19T07:18:38.516Z,12.23
2017-10-19T07:19:38.550Z,12.24
2017-10-19T07:20:38.584Z,12.29
2017-10-19T07:21:38.618Z,12.28
2017-10-19T07:22:38.651Z,12.31
2017-10-19T07:23:38.686Z,12.31
2017-10-19T07:24:38.737Z,12.27
2017-10-19T07:25:38.754Z,12.32
2017-10-19T07:26:38.789Z,12.35
2017-10-19T07:27:38.822Z,12.34
2017-10-19T07:28:38.855Z,12.45
2017-10-19T07:29:38.889Z,12.49
2017-10-19T07:30:38.924Z,12.47
2017-10-19T07:31:38.958Z,12.52
2017-10-19T07:32:38.992Z,12.52
2017-10-19T07:33:39.055Z,12.62
2017-10-19T07:34:39.061Z,12.56
2017-10-19T07:35:39.095Z,12.60
2017-10-19T07:36:39.128Z,12.62
2017-10-19T07:37:39.163Z,12.59
2017-10-19T07:38:39.197Z,12.62
2017-10-19T07:39:39.232Z,12.57
2017-10-19T07:40:39.297Z,12.74
2017-10-19T07:41:39.300Z,12.72
2017-10-19T07:42:39.334Z,12.60
2017-10-19T07:43:39.368Z,12.68
2017-10-19T07:44:39.403Z,12.74
2017-10-19T07:45:39.437Z,12.59
2017-10-19T07:46:39.472Z,12.52
2017-10-19T07:47:39.507Z,12.49
2017-10-19T07:48:39.539Z,12.52
2017-10-19T07:49:39.575Z,12.56
2017-10-19T07:50:39.610Z,12.47
2017-10-19T07:51:39.644Z,12.49
2017-10-19T07:52:39.679Z,12.34
2017-10-19T07:53:39.714Z,12.37
2017-10-19T07:54:39.747Z,12.53
2017-10-19T07:55:39.782Z,12.53
2017-10-19T07:56:39.818Z,12.57
2017-10-19T07:57:39.852Z,12.70
2017-10-19T07:58:39.886Z,12.77
2017-10-19T07:59:39.921Z,12.89
2017-10-19T08:00:39.955Z,12.89
2017-10-19T08:01:39.989Z,12.95
2017-10-19T08:02:40.024Z,13.07
2017-10-19T08:03:40.064Z,13.11
2017-10-19T08:04:40.093Z,13.12
2017-10-19T08:05:40.128Z,13.20
2017-10-19T08:06:40.162Z,13.44
2017-10-19T08:07:40.199Z,13.44
2017-10-19T08:08:40.231Z,13.48
2017-10-19T08:09:40.269Z,13.62
2017-10-19T08:10:40.303Z,13.62
2017-10-19T08:11:40.339Z,13.75
2017-10-19T08:12:40.374Z,13.81
2017-10-19T08:13:40.408Z,13.82
2017-10-19T08:14:40.443Z,13.77
2017-10-19T08:15:40.479Z,13.88
2017-10-19T08:16:40.513Z,13.87
2017-10-19T08:17:40.550Z,13.96
2017-10-19T08:18:40.583Z,13.97
2017-10-19T08:19:40.621Z,14.02
2017-10-19T08:20:40.689Z,14.03
2017-10-19T08:21:40.691Z,14.10
2017-10-19T08:22:40.727Z,14.20
2017-10-19T08:23:40.764Z,14.17
2017-10-19T08:24:40.799Z,14.24
2017-10-19T08:25:40.835Z,14.27
2017-10-19T08:26:40.875Z,14.33
2017-10-19T08:27:40.907Z,14.45
2017-10-19T08:28:40.943Z,14.46
2017-10-19T08:29:40.980Z,14.46
2017-10-19T08:30:41.015Z,14.52
2017-10-19T08:31:41.052Z,14.54
2017-10-19T08:32:41.087Z,14.64
2017-10-19T08:33:41.123Z,14.83
2017-10-19T08:34:41.160Z,15.19
2017-10-19T08:35:41.197Z,15.35
2017-10-19T08:36:41.263Z,16.17
2017-10-19T08:37:41.270Z,16.30
2017-10-19T08:38:41.307Z,17.04
2017-10-19T08:39:41.344Z,17.74
2017-10-19T08:40:41.381Z,17.56
2017-10-19T08:41:41.418Z,17.62
2017-10-19T08:42:41.455Z,18.29
2017-10-19T08:43:41.492Z,18.92
2017-10-19T08:44:41.532Z,20.77
2017-10-19T08:45:41.574Z,22.39
2017-10-19T08:46:41.605Z,23.68
2017-10-19T08:47:41.643Z,24.62
2017-10-19T08:48:41.683Z,23.80
2017-10-19T08:49:41.721Z,22.98
2017-10-19T08:50:41.760Z,22.42
2017-10-19T08:51:41.801Z,21.72
2017-10-19T08:52:41.842Z,20.79
2017-10-19T08:53:41.879Z,20.20
2017-10-19T08:54:41.920Z,19.71
2017-10-19T08:55:41.971Z,19.37
2017-10-19T08:56:41.999Z,19.08
2017-10-19T08:57:42.040Z,18.91
2017-10-19T08:58:42.081Z,18.58
2017-10-19T08:59:42.123Z,18.29
2017-10-19T09:00:42.161Z,18.17
2017-10-19T09:01:42.201Z,18.11
2017-10-19T09:02:42.243Z,17.99
2017-10-19T09:03:42.285Z,17.77
2017-10-19T09:04:42.321Z,17.64
2017-10-19T09:05:42.361Z,17.70
2017-10-19T09:06:42.402Z,17.54
2017-10-19T09:07:42.441Z,17.55
2017-10-19T09:08:42.483Z,17.62
2017-10-19T09:09:42.522Z,17.62
2017-10-19T09:10:42.563Z,17.54
2017-10-19T09:11:42.601Z,17.72
2017-10-19T09:12:42.640Z,17.70
2017-10-19T09:13:42.680Z,17.75
2017-10-19T09:14:42.719Z,17.92
2017-10-19T09:15:42.759Z,17.99
2017-10-19T09:16:42.798Z,18.03
2017-10-19T09:17:42.839Z,17.89
2017-10-19T09:18:42.878Z,18.03
2017-10-19T09:19:42.919Z,18.11
2017-10-19T09:20:42.958Z,18.29
2017-10-19T09:21:42.999Z,18.29
2017-10-19T09:22:43.036Z,18.30
2017-10-19T09:23:43.077Z,18.51
2017-10-19T09:24:43.116Z,18.45
2017-10-19T09:25:43.156Z,18.57
2017-10-19T09:26:43.195Z,18.47
2017-10-19T09:27:43.236Z,18.30
2017-10-19T09:28:43.283Z,18.35
2017-10-19T09:29:43.316Z,18.42
2017-10-19T09:30:43.357Z,18.57
2017-10-19T09:31:43.396Z,18.66
2017-10-19T09:32:43.437Z,18.90
2017-10-19T09:33:43.476Z,19.00
2017-10-19T09:34:43.516Z,19.14
2017-10-19T09:35:43.557Z,19.33
2017-10-19T09:36:43.596Z,19.78
2017-10-19T09:37:43.638Z,19.99
2017-10-19T09:38:43.678Z,20.29
2017-10-19T09:39:43.718Z,20.23
2017-10-19T09:40:43.758Z,20.02
2017-10-19T09:41:43.800Z,19.84
2017-10-19T09:42:43.839Z,19.74
2017-10-19T09:43:43.882Z,19.80
2017-10-19T09:44:43.921Z,19.80
2017-10-19T09:45:43.962Z,19.96
2017-10-19T09:46:44.004Z,20.13
2017-10-19T09:47:44.045Z,20.28
2017-10-19T09:48:44.086Z,20.52
2017-10-19T09:49:44.125Z,20.74
2017-10-19T09:50:44.168Z,21.19
2017-10-19T09:51:44.215Z,21.88
2017-10-19T09:52:44.250Z,22.65
2017-10-19T09:53:44.292Z,23.02
2017-10-19T09:54:44.334Z,23.09
2017-10-19T09:55:44.376Z,23.10
2017-10-19T09:56:44.416Z,23.20
2017-10-19T09:57:44.457Z,23.27
2017-10-19T09:58:44.501Z,23.27
2017-10-19T09:59:44.544Z,23.28
2017-10-19T10:00:44.585Z,23.46
2017-10-19T10:01:44.628Z,24.12
2017-10-19T10:02:44.672Z,24.81
2017-10-19T10:03:44.715Z,24.81
2017-10-19T10:04:44.757Z,25.15
2017-10-19T10:05:44.801Z,27.02
2017-10-19T10:06:44.846Z,27.57
2017-10-19T10:07:44.888Z,28.30
2017-10-19T10:08:44.933Z,27.51
2017-10-19T10:09:44.976Z,27.60
2017-10-19T10:10:45.021Z,28.89
2017-10-19T10:11:45.066Z,30.08
2017-10-19T10:12:45.110Z,29.31
2017-10-19T10:13:45.155Z,29.05
2017-10-19T10:14:45.201Z,28.07
2017-10-19T10:15:45.247Z,26.70
2017-10-19T10:16:45.341Z,25.92
2017-10-19T10:17:45.338Z,25.32
2017-10-19T10:18:45.383Z,24.76
2017-10-19T10:19:45.431Z,24.35
2017-10-19T10:20:45.476Z,24.13
2017-10-19T10:21:45.522Z,24.05
2017-10-19T10:22:45.569Z,23.73
2017-10-19T10:23:45.614Z,23.65
2017-10-19T10:24:45.659Z,23.54
2017-10-19T10:25:45.704Z,23.54
2017-10-19T10:26:45.750Z,23.32
2017-10-19T10:27:45.796Z,23.36
2017-10-19T10:28:45.840Z,23.38
2017-10-19T10:29:45.885Z,23.39
2017-10-19T10:30:45.931Z,23.43
2017-10-19T10:31:45.975Z,23.50
2017-10-19T10:32:46.020Z,23.68
2017-10-19T10:33:46.064Z,23.76
2017-10-19T10:34:46.110Z,23.93
2017-10-19T10:35:46.154Z,24.39
2017-10-19T10:36:46.197Z,25.40
2017-10-19T10:37:46.244Z,25.92
2017-10-19T10:38:46.289Z,25.91
2017-10-19T10:39:46.336Z,25.94
2017-10-19T10:40:46.378Z,25.72
2017-10-19T10:41:46.425Z,25.90
2017-10-19T10:42:46.469Z,25.64
2017-10-19T10:43:46.515Z,26.15
2017-10-19T10:44:46.559Z,26.91
2017-10-19T10:45:46.605Z,26.88
2017-10-19T10:46:46.650Z,26.84
2017-10-19T10:47:46.695Z,28.00
2017-10-19T10:48:46.740Z,28.49
2017-10-19T10:49:46.786Z,27.94
2017-10-19T10:50:46.832Z,27.85
2017-10-19T10:51:46.885Z,27.55
2017-10-19T10:52:46.925Z,27.69
2017-10-19T10:53:46.970Z,27.24
2017-10-19T10:54:47.016Z,26.54
2017-10-19T10:55:47.064Z,26.15
2017-10-19T10:56:47.108Z,26.01
2017-10-19T10:57:47.156Z,26.05
2017-10-19T10:58:47.202Z,26.15
2017-10-19T10:59:47.250Z,26.09
2017-10-19T11:00:47.294Z,26.29
2017-10-19T11:01:47.340Z,26.33
2017-10-19T11:02:47.387Z,26.36
2017-10-19T11:03:47.433Z,26.44
2017-10-19T11:04:47.479Z,26.39
2017-10-19T11:05:47.525Z,26.35
2017-10-19T11:06:47.572Z,26.45
2017-10-19T11:07:47.619Z,27.12
2017-10-19T11:08:47.665Z,27.13
2017-10-19T11:09:47.710Z,27.06
2017-10-19T11:10:47.757Z,27.18
2017-10-19T11:11:47.806Z,27.62
2017-10-19T11:12:47.849Z,28.58
2017-10-19T11:13:47.900Z,29.51
2017-10-19T11:14:47.944Z,30.58
2017-10-19T11:15:47.991Z,32.51
2017-10-19T11:16:48.044Z,33.47
2017-10-19T11:17:48.088Z,34.06
2017-10-19T11:18:48.135Z,32.87
2017-10-19T11:19:48.183Z,34.53
2017-10-19T11:20:48.231Z,35.18
2017-10-19T11:21:48.281Z,35.94
2017-10-19T11:22:48.333Z,36.49
2017-10-19T11:23:48.384Z,36.76
2017-10-19T11:24:48.433Z,36.23
2017-10-19T11:25:48.483Z,35.58
2017-10-19T11:26:48.533Z,36.46
2017-10-19T11:27:48.586Z,37.12
2017-10-19T11:28:48.637Z,37.72
2017-10-19T11:29:48.688Z,37.70
2017-10-19T11:30:48.740Z,36.20
2017-10-19T11:31:48.792Z,35.48
2017-10-19T11:32:48.844Z,36.65
2017-10-19T11:33:48.904Z,37.55
2017-10-19T11:34:48.950Z,37.91
2017-10-19T11:35:49.024Z,37.20
2017-10-19T11:36:49.053Z,37.10
2017-10-19T11:37:49.109Z,38.40
2017-10-19T11:38:49.161Z,38.98
2017-10-19T11:39:49.217Z,37.75
2017-10-19T11:40:49.267Z,35.85
2017-10-19T11:41:49.320Z,34.62
2017-10-19T11:42:49.374Z,34.65
2017-10-19T11:43:49.427Z,35.87
2017-10-19T11:44:49.480Z,36.81
2017-10-19T11:45:49.535Z,37.49
2017-10-19T11:46:49.587Z,38.07
2017-10-19T11:47:49.642Z,38.15
2017-10-19T11:48:49.696Z,38.90
2017-10-19T11:49:49.748Z,38.83
2017-10-19T11:50:49.811Z,39.44
2017-10-19T11:51:49.856Z,39.63
2017-10-19T11:52:49.917Z,39.43
2017-10-19T11:53:49.968Z,39.51
2017-10-19T11:54:50.018Z,39.67
2017-10-19T11:55:50.073Z,39.14
2017-10-19T11:56:50.129Z,39.28
2017-10-19T11:57:50.183Z,39.57
2017-10-19T11:58:50.237Z,39.88
2017-10-19T11:59:50.341Z,40.15
2017-10-19T12:00:50.346Z,40.12
2017-10-19T12:01:50.400Z,40.04
2017-10-19T12:02:50.456Z,40.42
2017-10-19T12:03:50.512Z,40.34
2017-10-19T12:04:50.565Z,40.39
2017-10-19T12:05:50.621Z,40.48
2017-10-19T12:06:50.675Z,40.22
2017-10-19T12:07:50.729Z,40.38
2017-10-19T12:08:50.783Z,40.46
2017-10-19T12:09:50.840Z,40.80
2017-10-19T12:10:50.894Z,40.80
2017-10-19T12:11:50.950Z,40.89
2017-10-19T12:12:51.003Z,41.01
2017-10-19T12:13:51.060Z,41.01
2017-10-19T12:14:51.115Z,40.77
2017-10-19T12:15:51.172Z,40.94
2017-10-19T12:16:51.226Z,40.72
2017-10-19T12:17:51.281Z,40.23
2017-10-19T12:18:51.336Z,39.30
2017-10-19T12:19:51.395Z,38.88
2017-10-19T12:20:51.448Z,39.10
2017-10-19T12:21:51.503Z,39.09
2017-10-19T12:22:51.560Z,38.07
2017-10-19T12:23:51.615Z,37.93
2017-10-19T12:24:51.669Z,38.46
2017-10-19T12:25:51.727Z,39.17
2017-10-19T12:26:51.810Z,39.54
2017-10-19T12:27:51.839Z,39.97
2017-10-19T12:28:51.893Z,40.12
2017-10-19T12:29:51.953Z,40.22
2017-10-19T12:30:52.005Z,39.86
2017-10-19T12:31:52.065Z,40.26
2017-10-19T12:32:52.116Z,40.25
2017-10-19T12:33:52.173Z,39.94
2017-10-19T12:34:52.230Z,40.06
2017-10-19T12:35:52.285Z,40.07
2017-10-19T12:36:52.340Z,39.07
2017-10-19T12:37:52.396Z,39.29
2017-10-19T12:38:52.452Z,39.30
2017-10-19T12:39:52.514Z,39.33
2017-10-19T12:40:52.563Z,39.33
2017-10-19T12:41:52.619Z,39.91
2017-10-19T12:42:52.676Z,40.25
2017-10-19T12:43:52.731Z,40.53
2017-10-19T12:44:52.787Z,40.43
2017-10-19T12:45:52.843Z,40.67
2017-10-19T12:46:52.898Z,40.35
2017-10-19T12:47:52.954Z,40.39
2017-10-19T12:48:53.011Z,40.50
2017-10-19T12:49:53.065Z,39.62
2017-10-19T12:50:53.123Z,39.84
2017-10-19T12:51:53.178Z,40.13
2017-10-19T12:52:53.233Z,39.47
2017-10-19T12:53:53.288Z,39.22
2017-10-19T12:54:53.345Z,39.10
2017-10-19T12:55:53.402Z,39.26
2017-10-19T12:56:53.454Z,39.59
2017-10-19T12:57:53.512Z,39.55
2017-10-19T12:58:53.568Z,39.73
2017-10-19T12:59:53.624Z,39.07
2017-10-19T13:00:53.678Z,39.17
2017-10-19T13:01:53.735Z,39.33
2017-10-19T13:02:53.791Z,39.40